sensor_id;sensor_type;location;lat;lon;timestamp;P1;durP1;ratioP1;P2;durP2;ratioP2
51654;SDS011;37732;53.106;7.030;2022-08-21T00:01:27;9.40;;;6.18;;
51654;SDS011;37732;53.106;7.030;2022-08-21T00:03:53;9.25;;;5.75;;
51654;SDS011;37732;53.106;7.030;2022-08-21T00:06:20;9.95;;;7.20;;
51654;SDS011;37732;53.106;7.030;2022-08-21T00:08:46;11.05;;;7.43;;
51654;SDS011;37732;53.106;7.030;2022-08-21T00:11:12;10.15;;;6.53;;
51654;SDS011;37732;53.106;7.030;2022-08-21T00:13:38;8.30;;;6.20;;
51654;SDS011;37732;53.106;7.030;2022-08-21T00:16:04;9.80;;;6.65;;
51654;SDS011;37732;53.106;7.030;2022-08-21T00:18:30;7.90;;;6.28;;
51654;SDS011;37732;53.106;7.030;2022-08-21T00:20:56;9.45;;;7.70;;
51654;SDS011;37732;53.106;7.030;2022-08-21T00:23:22;8.07;;;5.72;;
51654;SDS011;37732;53.106;7.030;2022-08-21T00:25:48;12.02;;;8.80;;
51654;SDS011;37732;53.106;7.030;2022-08-21T00:28:14;9.38;;;6.38;;
51654;SDS011;37732;53.106;7.030;2022-08-21T00:30:40;11.38;;;6.90;;
51654;SDS011;37732;53.106;7.030;2022-08-21T00:33:06;7.90;;;5.85;;
51654;SDS011;37732;53.106;7.030;2022-08-21T00:35:34;10.20;;;6.00;;
51654;SDS011;37732;53.106;7.030;2022-08-21T00:38:02;9.85;;;5.80;;
51654;SDS011;37732;53.106;7.030;2022-08-21T00:40:38;9.27;;;6.50;;
51654;SDS011;37732;53.106;7.030;2022-08-21T00:43:05;7.95;;;5.53;;
51654;SDS011;37732;53.106;7.030;2022-08-21T00:45:33;8.43;;;5.82;;
51654;SDS011;37732;53.106;7.030;2022-08-21T00:47:59;5.78;;;4.80;;
51654;SDS011;37732;53.106;7.030;2022-08-21T00:50:26;4.95;;;3.90;;
51654;SDS011;37732;53.106;7.030;2022-08-21T00:52:55;5.30;;;4.13;;
51654;SDS011;37732;53.106;7.030;2022-08-21T00:55:21;5.63;;;4.03;;
51654;SDS011;37732;53.106;7.030;2022-08-21T00:57:49;9.57;;;7.43;;
51654;SDS011;37732;53.106;7.030;2022-08-21T01:00:20;7.22;;;4.78;;
51654;SDS011;37732;53.106;7.030;2022-08-21T01:02:53;8.15;;;5.55;;
51654;SDS011;37732;53.106;7.030;2022-08-21T01:05:19;7.80;;;5.40;;
51654;SDS011;37732;53.106;7.030;2022-08-21T01:07:45;5.95;;;4.72;;
51654;SDS011;37732;53.106;7.030;2022-08-21T01:10:11;6.50;;;4.63;;
51654;SDS011;37732;53.106;7.030;2022-08-21T01:12:37;6.63;;;4.25;;
51654;SDS011;37732;53.106;7.030;2022-08-21T01:15:05;5.53;;;4.53;;
51654;SDS011;37732;53.106;7.030;2022-08-21T01:17:32;7.43;;;5.65;;
51654;SDS011;37732;53.106;7.030;2022-08-21T01:19:59;7.10;;;4.90;;
51654;SDS011;37732;53.106;7.030;2022-08-21T01:22:27;6.47;;;5.03;;
51654;SDS011;37732;53.106;7.030;2022-08-21T01:24:53;8.63;;;5.20;;
51654;SDS011;37732;53.106;7.030;2022-08-21T01:27:18;6.32;;;4.97;;
51654;SDS011;37732;53.106;7.030;2022-08-21T01:29:47;9.25;;;5.50;;
51654;SDS011;37732;53.106;7.030;2022-08-21T01:32:22;7.40;;;5.32;;
51654;SDS011;37732;53.106;7.030;2022-08-21T01:34:49;8.93;;;6.70;;
51654;SDS011;37732;53.106;7.030;2022-08-21T01:37:16;12.57;;;7.43;;
51654;SDS011;37732;53.106;7.030;2022-08-21T01:39:42;8.95;;;5.43;;
51654;SDS011;37732;53.106;7.030;2022-08-21T01:42:08;7.80;;;5.70;;
51654;SDS011;37732;53.106;7.030;2022-08-21T01:44:34;5.75;;;4.60;;
51654;SDS011;37732;53.106;7.030;2022-08-21T01:47:01;7.68;;;4.75;;
51654;SDS011;37732;53.106;7.030;2022-08-21T01:49:30;8.05;;;5.75;;
51654;SDS011;37732;53.106;7.030;2022-08-21T01:51:55;6.97;;;5.20;;
51654;SDS011;37732;53.106;7.030;2022-08-21T01:54:21;6.53;;;4.97;;
51654;SDS011;37732;53.106;7.030;2022-08-21T01:56:48;8.48;;;5.20;;
51654;SDS011;37732;53.106;7.030;2022-08-21T01:59:16;9.60;;;6.35;;
51654;SDS011;37732;53.106;7.030;2022-08-21T02:01:42;6.95;;;4.88;;
51654;SDS011;37732;53.106;7.030;2022-08-21T02:04:08;6.28;;;4.72;;
51654;SDS011;37732;53.106;7.030;2022-08-21T02:06:34;11.27;;;5.93;;
51654;SDS011;37732;53.106;7.030;2022-08-21T02:09:02;7.07;;;5.18;;
51654;SDS011;37732;53.106;7.030;2022-08-21T02:11:28;9.27;;;7.07;;
51654;SDS011;37732;53.106;7.030;2022-08-21T02:13:56;10.25;;;6.88;;
51654;SDS011;37732;53.106;7.030;2022-08-21T02:16:22;7.30;;;5.40;;
51654;SDS011;37732;53.106;7.030;2022-08-21T02:18:47;6.28;;;4.80;;
51654;SDS011;37732;53.106;7.030;2022-08-21T02:21:13;9.57;;;5.35;;
51654;SDS011;37732;53.106;7.030;2022-08-21T02:23:38;8.65;;;5.43;;
51654;SDS011;37732;53.106;7.030;2022-08-21T02:26:05;6.05;;;4.60;;
51654;SDS011;37732;53.106;7.030;2022-08-21T02:28:32;8.98;;;6.93;;
51654;SDS011;37732;53.106;7.030;2022-08-21T02:30:57;7.65;;;6.03;;
51654;SDS011;37732;53.106;7.030;2022-08-21T02:33:23;7.88;;;5.82;;
51654;SDS011;37732;53.106;7.030;2022-08-21T02:35:50;6.80;;;4.82;;
51654;SDS011;37732;53.106;7.030;2022-08-21T02:38:21;7.47;;;5.80;;
51654;SDS011;37732;53.106;7.030;2022-08-21T02:40:49;8.95;;;6.57;;
51654;SDS011;37732;53.106;7.030;2022-08-21T02:43:16;11.93;;;7.65;;
51654;SDS011;37732;53.106;7.030;2022-08-21T02:45:44;9.23;;;7.00;;
51654;SDS011;37732;53.106;7.030;2022-08-21T02:48:12;11.23;;;9.15;;
51654;SDS011;37732;53.106;7.030;2022-08-21T02:50:46;11.70;;;8.18;;
51654;SDS011;37732;53.106;7.030;2022-08-21T02:53:16;10.48;;;8.63;;
51654;SDS011;37732;53.106;7.030;2022-08-21T02:55:42;10.02;;;9.02;;
51654;SDS011;37732;53.106;7.030;2022-08-21T02:58:10;10.75;;;9.60;;
51654;SDS011;37732;53.106;7.030;2022-08-21T03:00:38;14.18;;;11.00;;
51654;SDS011;37732;53.106;7.030;2022-08-21T03:03:04;12.40;;;10.05;;
51654;SDS011;37732;53.106;7.030;2022-08-21T03:05:31;14.40;;;9.75;;
51654;SDS011;37732;53.106;7.030;2022-08-21T03:07:59;12.05;;;10.30;;
51654;SDS011;37732;53.106;7.030;2022-08-21T03:10:26;9.98;;;8.98;;
51654;SDS011;37732;53.106;7.030;2022-08-21T03:12:52;11.82;;;8.55;;
51654;SDS011;37732;53.106;7.030;2022-08-21T03:15:18;12.20;;;8.77;;
51654;SDS011;37732;53.106;7.030;2022-08-21T03:17:46;11.45;;;9.13;;
51654;SDS011;37732;53.106;7.030;2022-08-21T03:20:12;13.00;;;9.75;;
51654;SDS011;37732;53.106;7.030;2022-08-21T03:22:40;14.25;;;10.40;;
51654;SDS011;37732;53.106;7.030;2022-08-21T03:25:06;11.43;;;7.95;;
51654;SDS011;37732;53.106;7.030;2022-08-21T03:27:33;11.23;;;8.10;;
51654;SDS011;37732;53.106;7.030;2022-08-21T03:29:59;10.43;;;9.07;;
51654;SDS011;37732;53.106;7.030;2022-08-21T03:32:26;11.43;;;9.45;;
51654;SDS011;37732;53.106;7.030;2022-08-21T03:34:52;10.02;;;8.68;;
51654;SDS011;37732;53.106;7.030;2022-08-21T03:37:18;9.80;;;8.80;;
51654;SDS011;37732;53.106;7.030;2022-08-21T03:39:43;12.55;;;9.82;;
51654;SDS011;37732;53.106;7.030;2022-08-21T03:42:10;10.40;;;8.43;;
51654;SDS011;37732;53.106;7.030;2022-08-21T03:44:36;10.82;;;9.13;;
51654;SDS011;37732;53.106;7.030;2022-08-21T03:47:03;12.88;;;9.60;;
51654;SDS011;37732;53.106;7.030;2022-08-21T03:49:29;12.70;;;11.40;;
51654;SDS011;37732;53.106;7.030;2022-08-21T03:51:54;14.15;;;10.65;;
51654;SDS011;37732;53.106;7.030;2022-08-21T03:54:20;11.35;;;9.88;;
51654;SDS011;37732;53.106;7.030;2022-08-21T03:56:46;12.82;;;11.45;;
51654;SDS011;37732;53.106;7.030;2022-08-21T03:59:12;16.17;;;12.63;;
51654;SDS011;37732;53.106;7.030;2022-08-21T04:01:38;14.50;;;11.18;;
51654;SDS011;37732;53.106;7.030;2022-08-21T04:04:04;13.93;;;10.60;;
51654;SDS011;37732;53.106;7.030;2022-08-21T04:06:31;12.57;;;9.57;;
51654;SDS011;37732;53.106;7.030;2022-08-21T04:08:58;13.95;;;10.82;;
51654;SDS011;37732;53.106;7.030;2022-08-21T04:11:23;14.02;;;11.30;;
51654;SDS011;37732;53.106;7.030;2022-08-21T04:13:49;13.40;;;10.80;;
51654;SDS011;37732;53.106;7.030;2022-08-21T04:16:15;13.40;;;10.75;;
51654;SDS011;37732;53.106;7.030;2022-08-21T04:18:41;14.18;;;11.75;;
51654;SDS011;37732;53.106;7.030;2022-08-21T04:21:07;14.63;;;10.35;;
51654;SDS011;37732;53.106;7.030;2022-08-21T04:23:35;13.95;;;10.68;;
51654;SDS011;37732;53.106;7.030;2022-08-21T04:26:02;12.43;;;9.63;;
51654;SDS011;37732;53.106;7.030;2022-08-21T04:28:28;13.02;;;10.13;;
51654;SDS011;37732;53.106;7.030;2022-08-21T04:30:54;15.55;;;8.85;;
51654;SDS011;37732;53.106;7.030;2022-08-21T04:33:20;11.68;;;9.95;;
51654;SDS011;37732;53.106;7.030;2022-08-21T04:35:46;11.93;;;9.82;;
51654;SDS011;37732;53.106;7.030;2022-08-21T04:38:12;12.45;;;9.30;;
51654;SDS011;37732;53.106;7.030;2022-08-21T04:40:38;11.60;;;9.38;;
51654;SDS011;37732;53.106;7.030;2022-08-21T04:43:06;16.75;;;9.70;;
51654;SDS011;37732;53.106;7.030;2022-08-21T04:45:37;11.48;;;9.15;;
51654;SDS011;37732;53.106;7.030;2022-08-21T04:48:09;12.07;;;9.77;;
51654;SDS011;37732;53.106;7.030;2022-08-21T04:53:16;13.38;;;9.02;;
51654;SDS011;37732;53.106;7.030;2022-08-21T04:55:45;9.97;;;8.37;;
51654;SDS011;37732;53.106;7.030;2022-08-21T04:58:12;14.80;;;10.70;;
51654;SDS011;37732;53.106;7.030;2022-08-21T05:00:40;12.35;;;10.25;;
51654;SDS011;37732;53.106;7.030;2022-08-21T05:03:06;11.73;;;8.48;;
51654;SDS011;37732;53.106;7.030;2022-08-21T05:05:34;10.55;;;9.27;;
51654;SDS011;37732;53.106;7.030;2022-08-21T05:08:01;12.35;;;8.82;;
51654;SDS011;37732;53.106;7.030;2022-08-21T05:10:27;11.20;;;9.52;;
51654;SDS011;37732;53.106;7.030;2022-08-21T05:12:54;12.88;;;9.93;;
51654;SDS011;37732;53.106;7.030;2022-08-21T05:15:20;12.65;;;9.82;;
51654;SDS011;37732;53.106;7.030;2022-08-21T05:17:46;11.73;;;8.80;;
51654;SDS011;37732;53.106;7.030;2022-08-21T05:20:12;13.80;;;9.68;;
51654;SDS011;37732;53.106;7.030;2022-08-21T05:22:39;14.30;;;10.35;;
51654;SDS011;37732;53.106;7.030;2022-08-21T05:25:05;11.40;;;9.82;;
51654;SDS011;37732;53.106;7.030;2022-08-21T05:27:31;15.57;;;10.52;;
51654;SDS011;37732;53.106;7.030;2022-08-21T05:29:57;14.07;;;10.70;;
51654;SDS011;37732;53.106;7.030;2022-08-21T05:32:23;13.73;;;11.45;;
51654;SDS011;37732;53.106;7.030;2022-08-21T05:34:49;15.45;;;10.13;;
51654;SDS011;37732;53.106;7.030;2022-08-21T05:37:15;19.13;;;10.25;;
51654;SDS011;37732;53.106;7.030;2022-08-21T05:39:41;14.23;;;9.90;;
51654;SDS011;37732;53.106;7.030;2022-08-21T05:42:07;11.98;;;10.25;;
51654;SDS011;37732;53.106;7.030;2022-08-21T05:44:33;13.38;;;10.40;;
51654;SDS011;37732;53.106;7.030;2022-08-21T05:47:16;11.60;;;10.13;;
51654;SDS011;37732;53.106;7.030;2022-08-21T05:49:42;16.05;;;11.30;;
51654;SDS011;37732;53.106;7.030;2022-08-21T05:52:08;14.20;;;10.63;;
51654;SDS011;37732;53.106;7.030;2022-08-21T05:54:35;14.73;;;10.57;;
51654;SDS011;37732;53.106;7.030;2022-08-21T05:57:02;15.63;;;11.27;;
51654;SDS011;37732;53.106;7.030;2022-08-21T05:59:28;16.90;;;11.13;;
51654;SDS011;37732;53.106;7.030;2022-08-21T06:01:54;14.10;;;10.80;;
51654;SDS011;37732;53.106;7.030;2022-08-21T06:04:19;12.55;;;10.73;;
51654;SDS011;37732;53.106;7.030;2022-08-21T06:06:45;14.73;;;10.55;;
51654;SDS011;37732;53.106;7.030;2022-08-21T06:09:12;12.80;;;9.50;;
51654;SDS011;37732;53.106;7.030;2022-08-21T06:11:38;14.43;;;10.00;;
51654;SDS011;37732;53.106;7.030;2022-08-21T06:14:03;12.20;;;9.75;;
51654;SDS011;37732;53.106;7.030;2022-08-21T06:16:31;13.50;;;10.23;;
51654;SDS011;37732;53.106;7.030;2022-08-21T06:18:57;12.73;;;10.02;;
51654;SDS011;37732;53.106;7.030;2022-08-21T06:21:22;13.25;;;9.02;;
51654;SDS011;37732;53.106;7.030;2022-08-21T06:23:48;12.13;;;8.65;;
51654;SDS011;37732;53.106;7.030;2022-08-21T06:26:14;12.38;;;8.98;;
51654;SDS011;37732;53.106;7.030;2022-08-21T06:28:40;11.32;;;8.50;;
51654;SDS011;37732;53.106;7.030;2022-08-21T06:31:10;10.07;;;7.75;;
51654;SDS011;37732;53.106;7.030;2022-08-21T06:33:46;9.02;;;7.68;;
51654;SDS011;37732;53.106;7.030;2022-08-21T06:36:12;11.55;;;8.43;;
51654;SDS011;37732;53.106;7.030;2022-08-21T06:38:38;12.50;;;9.20;;
51654;SDS011;37732;53.106;7.030;2022-08-21T06:41:05;13.23;;;8.80;;
51654;SDS011;37732;53.106;7.030;2022-08-21T06:43:41;15.02;;;8.57;;
51654;SDS011;37732;53.106;7.030;2022-08-21T06:46:12;12.38;;;7.90;;
51654;SDS011;37732;53.106;7.030;2022-08-21T06:48:38;12.38;;;8.52;;
51654;SDS011;37732;53.106;7.030;2022-08-21T06:51:04;12.75;;;7.85;;
51654;SDS011;37732;53.106;7.030;2022-08-21T06:53:29;13.90;;;7.72;;
51654;SDS011;37732;53.106;7.030;2022-08-21T06:55:55;14.50;;;8.10;;
51654;SDS011;37732;53.106;7.030;2022-08-21T06:58:21;13.10;;;8.00;;
51654;SDS011;37732;53.106;7.030;2022-08-21T07:00:48;11.07;;;7.35;;
51654;SDS011;37732;53.106;7.030;2022-08-21T07:03:18;15.07;;;8.10;;
51654;SDS011;37732;53.106;7.030;2022-08-21T07:05:53;15.98;;;8.05;;
51654;SDS011;37732;53.106;7.030;2022-08-21T07:08:19;11.20;;;6.90;;
51654;SDS011;37732;53.106;7.030;2022-08-21T07:10:46;11.45;;;7.18;;
51654;SDS011;37732;53.106;7.030;2022-08-21T07:13:13;11.18;;;7.07;;
51654;SDS011;37732;53.106;7.030;2022-08-21T07:15:39;11.23;;;6.80;;
51654;SDS011;37732;53.106;7.030;2022-08-21T07:18:05;10.82;;;6.63;;
51654;SDS011;37732;53.106;7.030;2022-08-21T07:20:31;11.38;;;6.47;;
51654;SDS011;37732;53.106;7.030;2022-08-21T07:22:59;10.70;;;6.45;;
51654;SDS011;37732;53.106;7.030;2022-08-21T07:25:28;14.10;;;7.10;;
51654;SDS011;37732;53.106;7.030;2022-08-21T07:27:54;14.18;;;6.50;;
51654;SDS011;37732;53.106;7.030;2022-08-21T07:30:20;12.65;;;6.80;;
51654;SDS011;37732;53.106;7.030;2022-08-21T07:32:46;12.15;;;5.82;;
51654;SDS011;37732;53.106;7.030;2022-08-21T07:35:14;10.27;;;5.25;;
51654;SDS011;37732;53.106;7.030;2022-08-21T07:37:41;11.80;;;6.40;;
51654;SDS011;37732;53.106;7.030;2022-08-21T07:40:06;9.90;;;5.00;;
51654;SDS011;37732;53.106;7.030;2022-08-21T07:42:33;12.90;;;5.32;;
51654;SDS011;37732;53.106;7.030;2022-08-21T07:44:58;7.32;;;5.15;;
51654;SDS011;37732;53.106;7.030;2022-08-21T07:47:24;10.38;;;5.13;;
51654;SDS011;37732;53.106;7.030;2022-08-21T07:49:50;12.65;;;4.78;;
51654;SDS011;37732;53.106;7.030;2022-08-21T07:52:15;9.15;;;5.03;;
51654;SDS011;37732;53.106;7.030;2022-08-21T07:54:41;11.20;;;5.15;;
51654;SDS011;37732;53.106;7.030;2022-08-21T07:57:07;11.77;;;5.15;;
51654;SDS011;37732;53.106;7.030;2022-08-21T07:59:32;9.85;;;3.65;;
51654;SDS011;37732;53.106;7.030;2022-08-21T08:01:58;11.90;;;4.65;;
51654;SDS011;37732;53.106;7.030;2022-08-21T08:04:24;8.20;;;4.10;;
51654;SDS011;37732;53.106;7.030;2022-08-21T08:06:49;8.85;;;4.00;;
51654;SDS011;37732;53.106;7.030;2022-08-21T08:09:15;8.38;;;3.83;;
51654;SDS011;37732;53.106;7.030;2022-08-21T08:11:41;8.80;;;4.22;;
51654;SDS011;37732;53.106;7.030;2022-08-21T08:14:08;10.32;;;4.40;;
51654;SDS011;37732;53.106;7.030;2022-08-21T08:16:34;10.48;;;3.70;;
51654;SDS011;37732;53.106;7.030;2022-08-21T08:19:00;9.13;;;3.85;;
51654;SDS011;37732;53.106;7.030;2022-08-21T08:21:26;11.02;;;3.80;;
51654;SDS011;37732;53.106;7.030;2022-08-21T08:23:52;8.25;;;3.55;;
51654;SDS011;37732;53.106;7.030;2022-08-21T08:26:18;8.43;;;4.18;;
51654;SDS011;37732;53.106;7.030;2022-08-21T08:28:44;10.00;;;4.28;;
51654;SDS011;37732;53.106;7.030;2022-08-21T08:31:11;9.82;;;3.33;;
51654;SDS011;37732;53.106;7.030;2022-08-21T08:33:37;10.02;;;3.53;;
51654;SDS011;37732;53.106;7.030;2022-08-21T08:36:03;10.90;;;3.80;;
51654;SDS011;37732;53.106;7.030;2022-08-21T08:38:28;7.85;;;3.80;;
51654;SDS011;37732;53.106;7.030;2022-08-21T08:43:25;7.85;;;3.58;;
51654;SDS011;37732;53.106;7.030;2022-08-21T08:45:53;7.63;;;3.40;;
51654;SDS011;37732;53.106;7.030;2022-08-21T08:54:01;8.80;;;2.80;;
51654;SDS011;37732;53.106;7.030;2022-08-21T08:56:31;9.02;;;3.72;;
51654;SDS011;37732;53.106;7.030;2022-08-21T08:59:00;7.95;;;3.15;;
51654;SDS011;37732;53.106;7.030;2022-08-21T09:01:38;13.43;;;4.63;;
51654;SDS011;37732;53.106;7.030;2022-08-21T09:04:04;10.27;;;3.85;;
51654;SDS011;37732;53.106;7.030;2022-08-21T09:09:15;8.38;;;3.30;;
51654;SDS011;37732;53.106;7.030;2022-08-21T09:20:32;7.78;;;3.20;;
51654;SDS011;37732;53.106;7.030;2022-08-21T09:28:31;7.18;;;2.63;;
51654;SDS011;37732;53.106;7.030;2022-08-21T09:31:02;8.70;;;2.97;;
51654;SDS011;37732;53.106;7.030;2022-08-21T09:33:47;10.00;;;3.00;;
51654;SDS011;37732;53.106;7.030;2022-08-21T09:36:12;6.00;;;2.70;;
51654;SDS011;37732;53.106;7.030;2022-08-21T09:38:52;6.57;;;2.40;;
51654;SDS011;37732;53.106;7.030;2022-08-21T09:41:27;6.30;;;2.85;;
51654;SDS011;37732;53.106;7.030;2022-08-21T09:43:56;5.90;;;2.78;;
51654;SDS011;37732;53.106;7.030;2022-08-21T09:46:23;8.77;;;2.85;;
51654;SDS011;37732;53.106;7.030;2022-08-21T09:48:53;7.30;;;3.05;;
51654;SDS011;37732;53.106;7.030;2022-08-21T09:51:34;7.18;;;2.58;;
51654;SDS011;37732;53.106;7.030;2022-08-21T09:56:34;8.70;;;3.08;;
51654;SDS011;37732;53.106;7.030;2022-08-21T09:59:31;4.63;;;2.40;;
51654;SDS011;37732;53.106;7.030;2022-08-21T10:02:00;7.25;;;2.92;;
51654;SDS011;37732;53.106;7.030;2022-08-21T10:04:29;6.88;;;3.38;;
51654;SDS011;37732;53.106;7.030;2022-08-21T10:07:10;7.13;;;2.80;;
51654;SDS011;37732;53.106;7.030;2022-08-21T10:09:38;7.22;;;2.92;;
51654;SDS011;37732;53.106;7.030;2022-08-21T10:12:19;8.77;;;3.00;;
51654;SDS011;37732;53.106;7.030;2022-08-21T10:17:16;5.85;;;2.90;;
51654;SDS011;37732;53.106;7.030;2022-08-21T10:20:04;6.77;;;2.50;;
51654;SDS011;37732;53.106;7.030;2022-08-21T10:27:59;6.80;;;2.88;;
51654;SDS011;37732;53.106;7.030;2022-08-21T10:33:22;6.57;;;2.95;;
51654;SDS011;37732;53.106;7.030;2022-08-21T10:36:23;7.47;;;3.25;;
51654;SDS011;37732;53.106;7.030;2022-08-21T10:44:17;7.70;;;2.60;;
51654;SDS011;37732;53.106;7.030;2022-08-21T10:47:00;8.10;;;2.92;;
51654;SDS011;37732;53.106;7.030;2022-08-21T10:57:54;6.40;;;2.83;;
51654;SDS011;37732;53.106;7.030;2022-08-21T11:00:28;6.57;;;2.55;;
51654;SDS011;37732;53.106;7.030;2022-08-21T11:03:13;10.10;;;2.72;;
51654;SDS011;37732;53.106;7.030;2022-08-21T11:05:54;6.00;;;2.53;;
51654;SDS011;37732;53.106;7.030;2022-08-21T11:11:50;9.55;;;3.30;;
51654;SDS011;37732;53.106;7.030;2022-08-21T11:14:41;6.53;;;2.55;;
51654;SDS011;37732;53.106;7.030;2022-08-21T11:17:20;5.30;;;2.60;;
51654;SDS011;37732;53.106;7.030;2022-08-21T11:19:54;6.70;;;2.20;;
51654;SDS011;37732;53.106;7.030;2022-08-21T11:22:41;5.95;;;2.30;;
51654;SDS011;37732;53.106;7.030;2022-08-21T11:28:00;5.90;;;2.17;;
51654;SDS011;37732;53.106;7.030;2022-08-21T11:41:38;8.43;;;2.20;;
51654;SDS011;37732;53.106;7.030;2022-08-21T11:44:14;7.15;;;2.63;;
51654;SDS011;37732;53.106;7.030;2022-08-21T11:52:47;6.80;;;2.60;;
51654;SDS011;37732;53.106;7.030;2022-08-21T11:55:41;7.10;;;2.10;;
51654;SDS011;37732;53.106;7.030;2022-08-21T11:58:36;4.90;;;2.20;;
51654;SDS011;37732;53.106;7.030;2022-08-21T12:01:09;6.78;;;2.15;;
51654;SDS011;37732;53.106;7.030;2022-08-21T12:03:42;6.80;;;2.10;;
51654;SDS011;37732;53.106;7.030;2022-08-21T12:06:32;4.80;;;2.10;;
51654;SDS011;37732;53.106;7.030;2022-08-21T12:09:02;5.72;;;1.88;;
51654;SDS011;37732;53.106;7.030;2022-08-21T12:14:36;5.93;;;2.55;;
51654;SDS011;37732;53.106;7.030;2022-08-21T12:17:06;5.07;;;2.28;;
51654;SDS011;37732;53.106;7.030;2022-08-21T12:19:41;6.20;;;2.05;;
51654;SDS011;37732;53.106;7.030;2022-08-21T12:22:08;5.72;;;2.80;;
51654;SDS011;37732;53.106;7.030;2022-08-21T12:24:43;4.18;;;1.77;;
51654;SDS011;37732;53.106;7.030;2022-08-21T12:33:03;4.47;;;1.83;;
51654;SDS011;37732;53.106;7.030;2022-08-21T12:35:32;7.82;;;2.50;;
51654;SDS011;37732;53.106;7.030;2022-08-21T12:38:15;5.15;;;2.20;;
51654;SDS011;37732;53.106;7.030;2022-08-21T12:46:01;5.55;;;2.30;;
51654;SDS011;37732;53.106;7.030;2022-08-21T12:48:31;6.80;;;2.55;;
51654;SDS011;37732;53.106;7.030;2022-08-21T12:51:13;6.30;;;3.00;;
51654;SDS011;37732;53.106;7.030;2022-08-21T12:53:44;9.52;;;2.78;;
51654;SDS011;37732;53.106;7.030;2022-08-21T12:56:23;8.35;;;2.65;;
51654;SDS011;37732;53.106;7.030;2022-08-21T12:58:55;4.70;;;2.10;;
51654;SDS011;37732;53.106;7.030;2022-08-21T13:04:00;8.93;;;2.22;;
51654;SDS011;37732;53.106;7.030;2022-08-21T13:06:29;8.32;;;3.53;;
51654;SDS011;37732;53.106;7.030;2022-08-21T13:09:04;6.25;;;2.50;;
51654;SDS011;37732;53.106;7.030;2022-08-21T13:11:32;8.25;;;2.67;;
51654;SDS011;37732;53.106;7.030;2022-08-21T13:13:58;5.68;;;2.33;;
51654;SDS011;37732;53.106;7.030;2022-08-21T13:16:27;7.45;;;2.35;;
51654;SDS011;37732;53.106;7.030;2022-08-21T13:19:00;5.75;;;2.47;;
51654;SDS011;37732;53.106;7.030;2022-08-21T13:21:34;7.88;;;2.75;;
51654;SDS011;37732;53.106;7.030;2022-08-21T13:24:21;5.57;;;2.55;;
51654;SDS011;37732;53.106;7.030;2022-08-21T13:26:51;5.80;;;2.38;;
51654;SDS011;37732;53.106;7.030;2022-08-21T13:29:19;8.57;;;3.28;;
51654;SDS011;37732;53.106;7.030;2022-08-21T13:31:48;7.63;;;3.17;;
51654;SDS011;37732;53.106;7.030;2022-08-21T13:34:17;6.57;;;2.55;;
51654;SDS011;37732;53.106;7.030;2022-08-21T13:36:44;7.00;;;2.75;;
51654;SDS011;37732;53.106;7.030;2022-08-21T13:39:18;5.32;;;2.25;;
51654;SDS011;37732;53.106;7.030;2022-08-21T13:41:46;5.43;;;2.72;;
51654;SDS011;37732;53.106;7.030;2022-08-21T13:44:19;7.53;;;2.58;;
51654;SDS011;37732;53.106;7.030;2022-08-21T13:49:36;5.13;;;2.58;;
51654;SDS011;37732;53.106;7.030;2022-08-21T13:52:15;7.37;;;2.73;;
51654;SDS011;37732;53.106;7.030;2022-08-21T13:54:52;11.18;;;3.42;;
51654;SDS011;37732;53.106;7.030;2022-08-21T13:57:27;5.47;;;2.40;;
51654;SDS011;37732;53.106;7.030;2022-08-21T14:02:45;8.60;;;2.65;;
51654;SDS011;37732;53.106;7.030;2022-08-21T14:05:20;5.65;;;2.67;;
51654;SDS011;37732;53.106;7.030;2022-08-21T14:07:48;7.38;;;2.85;;
51654;SDS011;37732;53.106;7.030;2022-08-21T14:10:17;7.13;;;2.42;;
51654;SDS011;37732;53.106;7.030;2022-08-21T14:12:55;7.10;;;3.05;;
51654;SDS011;37732;53.106;7.030;2022-08-21T14:15:27;7.22;;;2.78;;
51654;SDS011;37732;53.106;7.030;2022-08-21T14:18:05;6.70;;;2.40;;
51654;SDS011;37732;53.106;7.030;2022-08-21T14:20:43;6.90;;;2.85;;
51654;SDS011;37732;53.106;7.030;2022-08-21T14:23:09;6.05;;;2.85;;
51654;SDS011;37732;53.106;7.030;2022-08-21T14:30:52;8.32;;;2.92;;
51654;SDS011;37732;53.106;7.030;2022-08-21T14:33:27;6.30;;;2.95;;
51654;SDS011;37732;53.106;7.030;2022-08-21T14:35:57;6.68;;;2.47;;
51654;SDS011;37732;53.106;7.030;2022-08-21T14:38:24;7.65;;;2.67;;
51654;SDS011;37732;53.106;7.030;2022-08-21T14:40:53;6.18;;;3.15;;
51654;SDS011;37732;53.106;7.030;2022-08-21T14:43:22;6.97;;;2.80;;
51654;SDS011;37732;53.106;7.030;2022-08-21T14:45:50;8.60;;;3.08;;
51654;SDS011;37732;53.106;7.030;2022-08-21T14:48:15;7.45;;;3.10;;
51654;SDS011;37732;53.106;7.030;2022-08-21T14:50:41;6.65;;;2.72;;
51654;SDS011;37732;53.106;7.030;2022-08-21T14:53:07;7.05;;;2.78;;
51654;SDS011;37732;53.106;7.030;2022-08-21T14:55:33;6.63;;;2.92;;
51654;SDS011;37732;53.106;7.030;2022-08-21T14:58:19;6.75;;;2.70;;
51654;SDS011;37732;53.106;7.030;2022-08-21T15:00:48;6.53;;;2.30;;
51654;SDS011;37732;53.106;7.030;2022-08-21T15:03:14;4.57;;;2.08;;
51654;SDS011;37732;53.106;7.030;2022-08-21T15:05:40;7.45;;;2.60;;
51654;SDS011;37732;53.106;7.030;2022-08-21T15:08:06;6.72;;;2.35;;
51654;SDS011;37732;53.106;7.030;2022-08-21T15:10:32;5.45;;;2.53;;
51654;SDS011;37732;53.106;7.030;2022-08-21T15:12:59;6.75;;;2.60;;
51654;SDS011;37732;53.106;7.030;2022-08-21T15:15:25;5.25;;;2.38;;
51654;SDS011;37732;53.106;7.030;2022-08-21T15:17:51;5.88;;;2.88;;
51654;SDS011;37732;53.106;7.030;2022-08-21T15:20:16;6.45;;;2.38;;
51654;SDS011;37732;53.106;7.030;2022-08-21T15:22:42;7.05;;;3.20;;
51654;SDS011;37732;53.106;7.030;2022-08-21T15:25:08;7.53;;;2.70;;
51654;SDS011;37732;53.106;7.030;2022-08-21T15:27:34;8.18;;;2.70;;
51654;SDS011;37732;53.106;7.030;2022-08-21T15:30:01;10.73;;;3.28;;
51654;SDS011;37732;53.106;7.030;2022-08-21T15:32:28;6.80;;;2.55;;
51654;SDS011;37732;53.106;7.030;2022-08-21T15:34:54;8.00;;;2.33;;
51654;SDS011;37732;53.106;7.030;2022-08-21T15:37:21;6.93;;;3.10;;
51654;SDS011;37732;53.106;7.030;2022-08-21T15:39:49;6.30;;;2.58;;
51654;SDS011;37732;53.106;7.030;2022-08-21T15:42:16;8.65;;;3.28;;
51654;SDS011;37732;53.106;7.030;2022-08-21T15:44:42;8.35;;;2.90;;
51654;SDS011;37732;53.106;7.030;2022-08-21T15:47:09;8.07;;;2.83;;
51654;SDS011;37732;53.106;7.030;2022-08-21T15:49:38;7.22;;;2.95;;
51654;SDS011;37732;53.106;7.030;2022-08-21T15:52:04;7.70;;;2.47;;
51654;SDS011;37732;53.106;7.030;2022-08-21T15:54:30;5.18;;;2.00;;
51654;SDS011;37732;53.106;7.030;2022-08-21T15:56:56;10.43;;;2.75;;
51654;SDS011;37732;53.106;7.030;2022-08-21T15:59:22;5.80;;;2.40;;
51654;SDS011;37732;53.106;7.030;2022-08-21T16:01:50;7.47;;;2.75;;
51654;SDS011;37732;53.106;7.030;2022-08-21T16:04:26;5.38;;;2.45;;
51654;SDS011;37732;53.106;7.030;2022-08-21T16:06:52;7.03;;;2.72;;
51654;SDS011;37732;53.106;7.030;2022-08-21T16:09:19;6.13;;;2.53;;
51654;SDS011;37732;53.106;7.030;2022-08-21T16:11:44;7.07;;;2.65;;
51654;SDS011;37732;53.106;7.030;2022-08-21T16:14:14;10.35;;;3.03;;
51654;SDS011;37732;53.106;7.030;2022-08-21T16:16:40;5.97;;;2.55;;
51654;SDS011;37732;53.106;7.030;2022-08-21T16:19:07;7.25;;;2.42;;
51654;SDS011;37732;53.106;7.030;2022-08-21T16:21:33;9.70;;;2.65;;
51654;SDS011;37732;53.106;7.030;2022-08-21T16:23:59;7.00;;;2.35;;
51654;SDS011;37732;53.106;7.030;2022-08-21T16:26:25;7.95;;;3.22;;
51654;SDS011;37732;53.106;7.030;2022-08-21T16:28:52;7.60;;;2.80;;
51654;SDS011;37732;53.106;7.030;2022-08-21T16:31:22;7.13;;;2.72;;
51654;SDS011;37732;53.106;7.030;2022-08-21T16:33:49;8.13;;;3.50;;
51654;SDS011;37732;53.106;7.030;2022-08-21T16:36:17;8.63;;;2.95;;